createdAt,value
2018-04-07T00:00:34.964Z,8.54
2018-04-07T00:03:03.339Z,8.50
2018-04-07T00:05:31.738Z,8.44
2018-04-07T00:08:00.148Z,8.47
2018-04-07T00:10:30.327Z,8.42
2018-04-07T00:12:58.746Z,8.40
2018-04-07T00:15:28.472Z,8.39
2018-04-07T00:17:57.633Z,8.43
2018-04-07T00:20:26.614Z,8.41
2018-04-07T00:22:56.676Z,8.38
2018-04-07T00:25:25.330Z,8.38
2018-04-07T00:27:53.942Z,8.29
2018-04-07T00:30:22.470Z,8.25
2018-04-07T00:32:51.219Z,8.35
2018-04-07T00:35:20.614Z,8.27
2018-04-07T00:37:49.157Z,8.26
2018-04-07T00:40:18.090Z,8.25
2018-04-07T00:42:46.556Z,8.26
2018-04-07T00:45:14.941Z,8.25
2018-04-07T00:47:44.578Z,8.31
2018-04-07T00:50:12.920Z,8.23
2018-04-07T00:52:53.089Z,8.30
2018-04-07T00:55:21.667Z,8.27
2018-04-07T00:57:50.573Z,8.20
2018-04-07T01:00:19.490Z,8.21
2018-04-07T01:02:48.664Z,8.25
2018-04-07T01:05:17.062Z,8.27
2018-04-07T01:07:48.430Z,8.24
2018-04-07T01:10:16.766Z,8.21
2018-04-07T01:12:45.185Z,8.23
2018-04-07T01:15:17.045Z,8.16
2018-04-07T01:17:45.588Z,8.18
2018-04-07T01:20:13.963Z,8.21
2018-04-07T01:22:43.436Z,8.18
2018-04-07T01:25:11.804Z,8.20
2018-04-07T01:27:40.198Z,8.13
2018-04-07T01:30:14.708Z,8.08
2018-04-07T01:32:43.085Z,8.09
2018-04-07T01:35:11.467Z,8.09
2018-04-07T01:37:40.047Z,8.04
2018-04-07T01:40:08.450Z,8.04
2018-04-07T01:42:37.009Z,7.99
2018-04-07T01:45:08.316Z,8.01
2018-04-07T01:47:36.734Z,7.94
2018-04-07T01:50:05.119Z,7.94
2018-04-07T01:52:34.803Z,7.91
2018-04-07T01:55:03.160Z,7.89
2018-04-07T01:57:31.576Z,7.90
2018-04-07T02:00:00.874Z,7.87
2018-04-07T02:02:34.064Z,7.91
2018-04-07T02:05:02.811Z,7.87
2018-04-07T02:07:32.352Z,7.89
2018-04-07T02:10:00.724Z,7.89
2018-04-07T02:12:30.411Z,7.86
2018-04-07T02:14:58.826Z,7.84
2018-04-07T02:17:28.367Z,7.86
2018-04-07T02:19:56.914Z,7.87
2018-04-07T02:22:25.333Z,7.90
2018-04-07T02:24:53.786Z,7.89
2018-04-07T02:27:22.357Z,7.89
2018-04-07T02:29:50.725Z,7.87
2018-04-07T02:32:19.193Z,7.84
2018-04-07T02:34:48.392Z,7.78
2018-04-07T02:37:16.777Z,7.84
2018-04-07T02:39:45.155Z,7.85
2018-04-07T02:42:13.709Z,7.81
2018-04-07T02:44:42.135Z,7.86
2018-04-07T02:47:10.531Z,7.84
2018-04-07T02:49:41.835Z,7.82
2018-04-07T02:52:10.170Z,7.78
2018-04-07T02:54:38.724Z,7.80
2018-04-07T02:57:07.308Z,7.75
2018-04-07T02:59:35.726Z,7.66
2018-04-07T03:02:04.175Z,7.71
2018-04-07T03:04:32.570Z,7.70
2018-04-07T03:07:00.995Z,7.66
2018-04-07T03:09:29.545Z,7.63
2018-04-07T03:11:58.003Z,7.60
2018-04-07T03:14:26.395Z,7.57
2018-04-07T03:16:54.928Z,7.59
2018-04-07T03:19:23.521Z,7.59
2018-04-07T03:21:52.146Z,7.58
2018-04-07T03:24:20.582Z,7.56
2018-04-07T03:26:49.877Z,7.56
2018-04-07T03:29:18.287Z,7.49
2018-04-07T03:31:47.436Z,7.48
2018-04-07T03:34:16.080Z,7.50
2018-04-07T03:36:44.834Z,7.44
2018-04-07T03:39:13.340Z,7.39
2018-04-07T03:41:42.001Z,7.40
2018-04-07T03:44:10.400Z,7.32
2018-04-07T03:46:38.735Z,7.27
2018-04-07T03:49:07.125Z,7.28
2018-04-07T03:51:35.824Z,7.31
2018-04-07T03:54:04.227Z,7.30
2018-04-07T03:56:33.401Z,7.23
2018-04-07T03:59:01.979Z,7.24
2018-04-07T04:01:30.755Z,7.21
2018-04-07T04:04:00.786Z,7.19
2018-04-07T04:06:29.255Z,7.16
2018-04-07T04:08:57.910Z,7.15
2018-04-07T04:11:26.485Z,7.11
2018-04-07T04:13:55.421Z,7.07
2018-04-07T04:16:24.010Z,7.07
2018-04-07T04:18:52.383Z,7.05
2018-04-07T04:21:20.831Z,7.03
2018-04-07T04:23:49.542Z,7.00
2018-04-07T04:26:18.020Z,7.00
2018-04-07T04:28:46.398Z,6.93
2018-04-07T04:31:14.834Z,6.94
2018-04-07T04:33:43.835Z,6.95
2018-04-07T04:36:12.194Z,6.94
2018-04-07T04:38:40.560Z,6.94
2018-04-07T04:41:08.956Z,6.96
2018-04-07T04:43:37.371Z,6.93
2018-04-07T04:46:05.726Z,6.97
2018-04-07T04:48:34.997Z,7.03
2018-04-07T04:51:03.535Z,6.98
2018-04-07T04:53:32.686Z,6.98
2018-04-07T04:56:01.942Z,7.01
2018-04-07T04:58:30.324Z,7.04
2018-04-07T05:00:59.526Z,7.06
2018-04-07T05:03:28.068Z,7.03
2018-04-07T05:05:56.490Z,7.06
2018-04-07T05:08:25.345Z,7.05
2018-04-07T05:10:53.954Z,7.07
2018-04-07T05:13:22.328Z,7.07
2018-04-07T05:15:50.979Z,7.11
2018-04-07T05:18:20.316Z,7.11
2018-04-07T05:20:48.673Z,7.15
2018-04-07T05:23:17.051Z,7.14
2018-04-07T05:25:45.488Z,7.17
2018-04-07T05:28:13.862Z,7.15
2018-04-07T05:30:42.220Z,7.17
2018-04-07T05:33:12.750Z,7.23
2018-04-07T05:35:41.117Z,7.24
2018-04-07T05:38:10.257Z,7.30
2018-04-07T05:40:38.772Z,7.32
2018-04-07T05:43:08.255Z,7.27
2018-04-07T05:45:36.803Z,7.31
2018-04-07T05:48:05.981Z,7.36
2018-04-07T05:50:34.371Z,7.39
2018-04-07T05:53:03.736Z,7.42
2018-04-07T05:55:32.233Z,7.43
2018-04-07T05:58:00.725Z,7.37
2018-04-07T06:00:29.345Z,7.44
2018-04-07T06:02:58.555Z,7.47
2018-04-07T06:05:27.086Z,7.47
2018-04-07T06:07:55.772Z,7.55
2018-04-07T06:10:24.769Z,7.54
2018-04-07T06:12:53.984Z,7.56
2018-04-07T06:15:22.540Z,7.59
2018-04-07T06:17:52.671Z,7.67
2018-04-07T06:20:21.208Z,7.72
2018-04-07T06:22:49.706Z,7.80
2018-04-07T06:25:18.125Z,7.81
2018-04-07T06:27:46.493Z,7.81
2018-04-07T06:30:15.478Z,7.85
2018-04-07T06:32:44.680Z,7.90
2018-04-07T06:35:13.902Z,7.93
2018-04-07T06:37:42.507Z,7.93
2018-04-07T06:40:11.006Z,7.97
2018-04-07T06:42:39.497Z,8.02
2018-04-07T06:45:08.166Z,8.09
2018-04-07T06:47:38.649Z,8.15
2018-04-07T06:50:07.184Z,8.22
2018-04-07T06:52:35.608Z,8.21
2018-04-07T06:55:04.210Z,8.30
2018-04-07T06:57:32.603Z,8.37
2018-04-07T07:00:01.351Z,8.42
2018-04-07T07:02:31.255Z,8.43
2018-04-07T07:04:59.751Z,8.44
2018-04-07T07:07:28.185Z,8.58
2018-04-07T07:09:57.500Z,8.64
2018-04-07T07:12:26.325Z,8.75
2018-04-07T07:14:55.138Z,8.87
2018-04-07T07:17:23.886Z,8.96
2018-04-07T07:19:52.298Z,9.05
2018-04-07T07:22:20.665Z,9.16
2018-04-07T07:24:49.328Z,9.18
2018-04-07T07:27:17.813Z,9.27
2018-04-07T07:29:46.340Z,9.44
2018-04-07T07:32:15.707Z,9.59
2018-04-07T07:34:44.125Z,9.64
2018-04-07T07:37:12.678Z,9.74
2018-04-07T07:39:41.157Z,9.82
2018-04-07T07:42:09.651Z,9.92
2018-04-07T07:44:39.678Z,10.12
2018-04-07T07:47:08.575Z,10.10
2018-04-07T07:49:37.148Z,10.02
2018-04-07T07:52:05.685Z,10.07
2018-04-07T07:54:34.967Z,10.14
2018-04-07T07:57:05.659Z,10.35
2018-04-07T07:59:34.353Z,10.55
2018-04-07T08:02:03.148Z,10.59
2018-04-07T08:04:31.728Z,10.66
2018-04-07T08:07:00.438Z,10.77
2018-04-07T08:09:29.067Z,10.88
2018-04-07T08:11:58.028Z,10.94
2018-04-07T08:14:26.964Z,11.07
2018-04-07T08:16:55.854Z,11.22
2018-04-07T08:19:24.658Z,11.15
2018-04-07T08:21:53.145Z,11.10
2018-04-07T08:24:21.604Z,11.02
2018-04-07T08:26:50.063Z,11.06
2018-04-07T08:29:18.603Z,10.99
2018-04-07T08:31:47.114Z,11.01
2018-04-07T08:34:15.593Z,11.12
2018-04-07T08:39:18.912Z,11.34
2018-04-07T08:41:47.269Z,11.47
2018-04-07T08:44:15.655Z,11.59
2018-04-07T08:46:44.538Z,11.71
2018-04-07T08:49:12.909Z,11.99
2018-04-07T08:51:41.459Z,12.00
2018-04-07T08:54:10.651Z,11.93
2018-04-07T08:56:39.456Z,11.91
2018-04-07T08:59:07.921Z,12.13
2018-04-07T09:01:36.652Z,12.19
2018-04-07T09:04:05.595Z,12.24
2018-04-07T09:06:34.144Z,12.46
2018-04-07T09:09:04.581Z,12.58
2018-04-07T09:11:33.376Z,13.08
2018-04-07T09:14:03.003Z,13.57
2018-04-07T09:16:32.275Z,13.99
2018-04-07T09:19:00.740Z,14.49
2018-04-07T09:21:31.404Z,15.05
2018-04-07T09:24:00.432Z,15.16
2018-04-07T09:26:28.910Z,15.28
2018-04-07T09:28:58.523Z,15.68
2018-04-07T09:31:28.065Z,15.85
2018-04-07T09:33:56.607Z,15.81
2018-04-07T09:36:25.204Z,15.88
2018-04-07T09:38:54.496Z,16.05
2018-04-07T09:41:22.883Z,15.93
2018-04-07T09:43:51.420Z,16.06
2018-04-07T09:46:20.546Z,16.43
2018-04-07T09:48:50.693Z,16.95
2018-04-07T09:51:22.944Z,16.95
2018-04-07T09:53:51.327Z,17.38
2018-04-07T09:56:19.843Z,17.21
2018-04-07T09:58:49.102Z,16.89
2018-04-07T10:01:17.496Z,16.81
2018-04-07T10:03:46.010Z,17.65
2018-04-07T10:06:14.534Z,17.59
2018-04-07T10:08:42.936Z,18.55
2018-04-07T10:11:11.415Z,19.67
2018-04-07T10:13:40.196Z,19.72
2018-04-07T10:16:08.913Z,19.15
2018-04-07T10:18:37.487Z,19.25
2018-04-07T10:21:06.117Z,19.78
2018-04-07T10:23:34.697Z,19.15
2018-04-07T10:26:03.591Z,18.63
2018-04-07T10:28:32.449Z,18.61
2018-04-07T10:31:00.906Z,19.28
2018-04-07T10:33:29.686Z,18.61
2018-04-07T10:35:58.484Z,19.57
2018-04-07T10:38:27.477Z,19.00
2018-04-07T10:40:55.964Z,19.04
2018-04-07T10:43:24.702Z,18.86
2018-04-07T10:45:53.110Z,19.05
2018-04-07T10:48:21.488Z,19.12
2018-04-07T10:50:49.938Z,19.34
2018-04-07T10:53:18.416Z,19.43
2018-04-07T10:55:46.991Z,19.04
2018-04-07T10:58:15.767Z,19.36
2018-04-07T11:00:44.653Z,18.97
2018-04-07T11:03:13.306Z,19.05
2018-04-07T11:05:41.781Z,19.07
2018-04-07T11:08:10.179Z,19.41
2018-04-07T11:10:38.625Z,19.70
2018-04-07T11:13:07.076Z,20.11
2018-04-07T11:15:36.223Z,20.21
2018-04-07T11:18:04.755Z,20.19
2018-04-07T11:20:33.391Z,20.33
2018-04-07T11:23:01.972Z,20.75
2018-04-07T11:25:31.587Z,21.36
2018-04-07T11:28:00.275Z,21.16
2018-04-07T11:30:28.857Z,20.56
2018-04-07T11:32:57.517Z,20.06
2018-04-07T11:35:26.605Z,19.71
2018-04-07T11:37:55.079Z,20.02
2018-04-07T11:40:23.478Z,20.03
2018-04-07T11:42:52.586Z,19.65
2018-04-07T11:45:20.964Z,19.49
2018-04-07T11:47:49.331Z,19.42
2018-04-07T11:50:19.694Z,19.33
2018-04-07T11:52:48.069Z,19.22
2018-04-07T11:55:16.500Z,19.41
2018-04-07T11:57:44.987Z,19.46
2018-04-07T12:00:13.397Z,19.39
2018-04-07T12:02:41.815Z,20.00
2018-04-07T12:05:11.706Z,20.39
2018-04-07T12:07:40.188Z,20.45
2018-04-07T12:10:08.619Z,20.53
2018-04-07T12:12:37.191Z,20.81
2018-04-07T12:15:05.657Z,20.75
2018-04-07T12:17:34.234Z,20.63
2018-04-07T12:20:04.630Z,20.26
2018-04-07T12:22:33.144Z,20.17
2018-04-07T12:25:02.917Z,19.96
2018-04-07T12:27:31.674Z,19.63
2018-04-07T12:30:00.138Z,19.73
2018-04-07T12:32:28.682Z,20.04
2018-04-07T12:34:59.165Z,20.28
2018-04-07T12:37:27.782Z,20.37
2018-04-07T12:39:56.458Z,20.40
2018-04-07T12:42:25.769Z,20.33
2018-04-07T12:44:54.163Z,20.16
2018-04-07T12:47:22.536Z,20.11
2018-04-07T12:49:50.911Z,20.22
2018-04-07T12:52:19.725Z,20.67
2018-04-07T12:54:48.163Z,20.72
2018-04-07T12:57:16.947Z,20.96
2018-04-07T12:59:46.266Z,20.82
2018-04-07T13:02:14.628Z,20.98
2018-04-07T13:04:43.008Z,20.91
2018-04-07T13:07:12.456Z,21.08
2018-04-07T13:09:42.301Z,21.19
2018-04-07T13:12:11.367Z,21.20
2018-04-07T13:14:39.839Z,21.41
2018-04-07T13:17:08.280Z,21.45
2018-04-07T13:19:37.626Z,21.81
2018-04-07T13:22:06.109Z,21.78
2018-04-07T13:24:34.929Z,21.57
2018-04-07T13:27:03.542Z,21.66
2018-04-07T13:29:32.012Z,21.67
2018-04-07T13:32:00.640Z,21.16
2018-04-07T13:34:29.505Z,20.99
2018-04-07T13:36:58.180Z,20.46
2018-04-07T13:39:26.686Z,20.57
2018-04-07T13:41:55.127Z,20.75
2018-04-07T13:44:23.495Z,20.37
2018-04-07T13:46:51.864Z,20.56
2018-04-07T13:49:20.518Z,20.79
2018-04-07T13:51:48.923Z,20.71
2018-04-07T13:54:17.477Z,20.68
2018-04-07T13:56:46.617Z,20.67
2018-04-07T13:59:14.997Z,20.44
2018-04-07T14:01:43.439Z,20.47
2018-04-07T14:04:12.060Z,20.26
2018-04-07T14:06:40.449Z,20.13
2018-04-07T14:09:08.991Z,20.20
2018-04-07T14:11:39.550Z,20.31
2018-04-07T14:14:08.214Z,20.58
2018-04-07T14:16:36.983Z,20.34
2018-04-07T14:19:07.550Z,20.25
2018-04-07T14:21:36.402Z,20.03
2018-04-07T14:24:04.836Z,20.10
2018-04-07T14:26:34.402Z,20.40
2018-04-07T14:29:02.813Z,20.58
2018-04-07T14:31:31.430Z,20.59
2018-04-07T14:33:59.868Z,20.36
2018-04-07T14:36:28.320Z,20.13
2018-04-07T14:38:57.183Z,19.94
2018-04-07T14:41:25.593Z,20.00
2018-04-07T14:43:53.991Z,19.94
2018-04-07T14:46:22.494Z,20.02
2018-04-07T14:48:50.933Z,20.09
2018-04-07T14:51:19.806Z,20.01
2018-04-07T14:53:48.276Z,19.98
2018-04-07T14:56:17.166Z,19.87
2018-04-07T14:58:45.537Z,19.95
2018-04-07T15:01:13.938Z,19.87
2018-04-07T15:03:43.149Z,19.77
2018-04-07T15:06:12.015Z,19.81
2018-04-07T15:08:40.422Z,19.87
2018-04-07T15:11:08.851Z,19.83
2018-04-07T15:13:37.283Z,19.71
2018-04-07T15:16:05.936Z,19.68
2018-04-07T15:18:35.628Z,19.55
2018-04-07T15:21:04.111Z,19.49
2018-04-07T15:23:32.487Z,19.40
2018-04-07T15:26:02.602Z,19.47
2018-04-07T15:28:31.907Z,19.48
2018-04-07T15:31:00.472Z,19.42
2018-04-07T15:33:30.371Z,19.32
2018-04-07T15:36:01.023Z,19.17
2018-04-07T15:38:32.801Z,19.07
2018-04-07T15:41:01.170Z,19.17
2018-04-07T15:43:30.348Z,19.15
2018-04-07T15:45:58.771Z,19.10
2018-04-07T15:48:27.160Z,18.87
2018-04-07T15:50:56.668Z,18.93
2018-04-07T15:53:25.092Z,18.86
2018-04-07T15:55:54.388Z,18.81
2018-04-07T15:58:22.796Z,18.84
2018-04-07T16:00:52.066Z,18.70
2018-04-07T16:03:20.539Z,18.75
2018-04-07T16:05:48.980Z,18.80
2018-04-07T16:08:18.663Z,18.71
2018-04-07T16:10:47.680Z,18.56
2018-04-07T16:13:16.553Z,18.49
2018-04-07T16:15:46.548Z,18.39
2018-04-07T16:20:49.973Z,18.39
2018-04-07T16:23:18.454Z,18.32
2018-04-07T16:25:46.907Z,18.30
2018-04-07T16:28:15.327Z,18.21
2018-04-07T16:30:44.732Z,18.25
2018-04-07T16:33:13.317Z,18.30
2018-04-07T16:35:42.011Z,18.25
2018-04-07T16:38:11.697Z,18.24
2018-04-07T16:40:40.226Z,18.31
2018-04-07T16:43:12.895Z,18.22
2018-04-07T16:45:48.801Z,18.23
2018-04-07T16:48:21.131Z,18.25
2018-04-07T16:50:59.452Z,18.28
2018-04-07T16:53:28.456Z,18.43
2018-04-07T16:55:56.885Z,18.46
2018-04-07T16:58:25.459Z,18.34
2018-04-07T17:00:53.878Z,18.32
2018-04-07T17:03:23.230Z,18.25
2018-04-07T17:05:51.909Z,18.17
2018-04-07T17:08:21.534Z,18.08
2018-04-07T17:10:50.007Z,18.12
2018-04-07T17:13:18.482Z,18.08
2018-04-07T17:15:48.102Z,18.03
2018-04-07T17:18:16.932Z,18.03
2018-04-07T17:20:45.329Z,17.97
2018-04-07T17:23:13.889Z,17.87
2018-04-07T17:25:42.260Z,17.82
2018-04-07T17:28:13.454Z,17.73
2018-04-07T17:30:42.266Z,17.73
2018-04-07T17:33:10.894Z,17.70
2018-04-07T17:35:39.812Z,17.62
2018-04-07T17:38:08.605Z,17.59
2018-04-07T17:40:38.370Z,17.54
2018-04-07T17:43:07.999Z,17.50
2018-04-07T17:45:37.542Z,17.44
2018-04-07T17:48:07.952Z,17.45
2018-04-07T17:50:37.480Z,17.34
2018-04-07T17:53:06.526Z,17.27
2018-04-07T17:55:34.904Z,17.20
2018-04-07T17:58:03.685Z,17.20
2018-04-07T18:00:32.127Z,17.12
2018-04-07T18:03:01.352Z,17.01
2018-04-07T18:05:29.904Z,16.93
2018-04-07T18:07:58.444Z,16.85
2018-04-07T18:10:27.698Z,16.79
2018-04-07T18:12:56.182Z,16.71
2018-04-07T18:15:25.853Z,16.69
2018-04-07T18:17:54.625Z,16.58
2018-04-07T18:20:22.966Z,16.53
2018-04-07T18:22:52.144Z,16.48
2018-04-07T18:25:20.497Z,16.45
2018-04-07T18:27:49.252Z,16.43
2018-04-07T18:30:17.951Z,16.38
2018-04-07T18:32:46.950Z,16.31
2018-04-07T18:35:15.351Z,16.25
2018-04-07T18:37:43.914Z,16.23
2018-04-07T18:40:12.503Z,16.20
2018-04-07T18:42:41.088Z,16.17
2018-04-07T18:45:09.612Z,16.16
2018-04-07T18:47:38.775Z,16.18
2018-04-07T18:50:07.259Z,16.15
2018-04-07T18:52:36.154Z,16.12
2018-04-07T18:55:04.572Z,16.10
2018-04-07T18:57:32.967Z,16.08
2018-04-07T19:00:01.379Z,16.03
2018-04-07T19:02:29.805Z,16.05
2018-04-07T19:04:58.286Z,15.99
2018-04-07T19:07:28.445Z,15.92
2018-04-07T19:09:56.842Z,15.87
2018-04-07T19:12:25.227Z,15.83
2018-04-07T19:14:53.752Z,15.79
2018-04-07T19:17:22.122Z,15.75
2018-04-07T19:19:50.657Z,15.70
2018-04-07T19:22:19.657Z,15.67
2018-04-07T19:24:48.176Z,15.59
2018-04-07T19:27:16.562Z,15.57
2018-04-07T19:29:45.427Z,15.56
2018-04-07T19:32:14.001Z,15.54
2018-04-07T19:34:42.584Z,15.51
2018-04-07T19:37:11.917Z,15.52
2018-04-07T19:39:40.580Z,15.50
2018-04-07T19:42:09.576Z,15.45
2018-04-07T19:44:38.562Z,15.47
2018-04-07T19:47:07.188Z,15.45
2018-04-07T19:49:36.641Z,15.44
2018-04-07T19:52:06.262Z,15.43
2018-04-07T19:54:34.729Z,15.41
2018-04-07T19:57:03.479Z,15.36
2018-04-07T19:59:32.830Z,15.31
2018-04-07T20:02:01.264Z,15.25
2018-04-07T20:04:29.740Z,15.20
2018-04-07T20:06:59.670Z,15.14
2018-04-07T20:09:28.082Z,15.12
2018-04-07T20:11:56.454Z,15.11
2018-04-07T20:14:25.874Z,15.06
2018-04-07T20:16:54.848Z,14.99
2018-04-07T20:19:23.471Z,14.98
2018-04-07T20:21:52.169Z,14.99
2018-04-07T20:24:20.732Z,14.98
2018-04-07T20:26:50.536Z,14.94
2018-04-07T20:29:20.135Z,14.94
2018-04-07T20:31:48.641Z,14.90
2018-04-07T20:34:17.144Z,14.85
2018-04-07T20:36:45.879Z,14.85
2018-04-07T20:39:15.256Z,14.82
2018-04-07T20:41:43.816Z,14.80
2018-04-07T20:44:12.500Z,14.78
2018-04-07T20:46:41.496Z,14.79
2018-04-07T20:49:10.127Z,14.79
2018-04-07T20:51:39.797Z,14.81
2018-04-07T20:54:08.623Z,14.79
2018-04-07T20:56:37.113Z,14.77
2018-04-07T20:59:06.503Z,14.82
2018-04-07T21:01:34.926Z,14.82
2018-04-07T21:04:03.286Z,14.82
2018-04-07T21:06:32.462Z,14.83
2018-04-07T21:09:00.889Z,14.80
2018-04-07T21:11:29.280Z,14.79
2018-04-07T21:13:57.811Z,14.74
2018-04-07T21:16:26.210Z,14.75
2018-04-07T21:18:54.579Z,14.75
2018-04-07T21:21:23.179Z,14.73
2018-04-07T21:23:51.741Z,14.69
2018-04-07T21:26:20.432Z,14.63
2018-04-07T21:28:50.016Z,14.61
2018-04-07T21:31:20.034Z,14.59
2018-04-07T21:33:48.515Z,14.60
2018-04-07T21:36:17.036Z,14.64
2018-04-07T21:38:45.789Z,14.56
2018-04-07T21:41:14.381Z,14.51
2018-04-07T21:43:42.988Z,14.49
2018-04-07T21:46:11.667Z,14.48
2018-04-07T21:48:40.442Z,14.48
2018-04-07T21:51:09.045Z,14.47
2018-04-07T21:53:37.720Z,14.50
2018-04-07T21:56:06.173Z,14.50
2018-04-07T21:58:34.774Z,14.52
2018-04-07T22:01:03.158Z,14.48
2018-04-07T22:03:31.614Z,14.44
2018-04-07T22:06:00.548Z,14.46
2018-04-07T22:08:28.902Z,14.43
2018-04-07T22:10:57.293Z,14.41
2018-04-07T22:13:25.999Z,14.38
2018-04-07T22:15:54.565Z,14.31
2018-04-07T22:18:23.014Z,14.23
2018-04-07T22:20:52.156Z,14.17
2018-04-07T22:23:20.648Z,14.13
2018-04-07T22:25:49.405Z,14.07
2018-04-07T22:28:17.983Z,14.04
2018-04-07T22:30:46.465Z,13.97
2018-04-07T22:33:14.848Z,13.95
2018-04-07T22:35:44.716Z,13.95
2018-04-07T22:38:13.330Z,13.94
2018-04-07T22:40:42.110Z,13.93
2018-04-07T22:43:10.646Z,13.88
2018-04-07T22:45:39.414Z,13.90
2018-04-07T22:48:07.890Z,13.92
2018-04-07T22:50:36.424Z,13.94
2018-04-07T22:53:04.822Z,13.97
2018-04-07T22:55:33.176Z,13.92
2018-04-07T22:58:01.679Z,13.94
2018-04-07T23:00:32.651Z,13.93
2018-04-07T23:03:01.096Z,13.94
2018-04-07T23:05:30.125Z,13.97
2018-04-07T23:07:58.514Z,13.98
2018-04-07T23:10:26.905Z,13.95
2018-04-07T23:12:56.498Z,13.87
2018-04-07T23:15:24.866Z,13.84
2018-04-07T23:17:53.249Z,13.85
2018-04-07T23:20:21.896Z,13.79
2018-04-07T23:22:50.342Z,13.73
2018-04-07T23:25:18.721Z,13.68
2018-04-07T23:27:47.259Z,13.66
2018-04-07T23:30:15.712Z,13.55
2018-04-07T23:32:44.126Z,13.57
2018-04-07T23:35:12.969Z,13.56
2018-04-07T23:37:41.619Z,13.50
2018-04-07T23:40:10.060Z,13.43
2018-04-07T23:42:38.483Z,13.40
2018-04-07T23:45:06.855Z,13.40
2018-04-07T23:47:35.209Z,13.44
2018-04-07T23:50:03.681Z,13.45
2018-04-07T23:52:32.061Z,13.38
2018-04-07T23:55:00.659Z,13.42
2018-04-07T23:57:29.042Z,13.39
2018-04-07T23:59:57.411Z,13.36
